AFL192 ULMM-UUYH
Flight info
| Callsign | AFL192 |
|---|---|
| Flight time | 1h 26m |
| Altitude | 35000 |
| Route | LOPRA T822 SOTIS P35 UTUKA |
| Aircraft | B77L/H-SDE1E2E3FGHIJ2J3J4J5M1RWXY/LB1D1 |
Departure
| Time | 2026-04-27 16:49 |
|---|---|
| Airport | Emperor Nicholas II Murmansk Airport (ULMM) |
Arrival
| Time | 2026-04-27 18:15 |
|---|---|
| Airport | Ukhta Airport (UUYH) |
| Time | Latitude | Longitude | Altitude | Speed | Heading |
|---|---|---|---|---|---|
| 2026-04-27 16:37 | 68.78327 | 32.75433 | 262 ft | 0 kts | 327° |
| 2026-04-27 16:44 | 68.78329 | 32.75430 | 262 ft | 2 kts | 327° |
| 2026-04-27 16:45 | 68.78359 | 32.75355 | 263 ft | 9 kts | 301° |
| 2026-04-27 16:45 | 68.78341 | 32.75164 | 265 ft | 10 kts | 235° |
| 2026-04-27 16:45 | 68.78331 | 32.75123 | 265 ft | 0 kts | 235° |
| 2026-04-27 16:47 | 68.78319 | 32.75077 | 266 ft | 6 kts | 235° |
| 2026-04-27 16:47 | 68.78265 | 32.74972 | 268 ft | 9 kts | 158° |
| 2026-04-27 16:48 | 68.78251 | 32.74997 | 268 ft | 0 kts | 149° |
| 2026-04-27 16:48 | 68.78211 | 32.75066 | 268 ft | 33 kts | 145° |
| 2026-04-27 16:48 | 68.77727 | 32.75963 | 265 ft | 135 kts | 147° |
| 2026-04-27 16:49 | 68.75791 | 32.79390 | 2199 ft | 166 kts | 147° |
| 2026-04-27 16:49 | 68.74809 | 32.81232 | 2752 ft | 185 kts | 146° |
| 2026-04-27 16:49 | 68.73713 | 32.83313 | 3620 ft | 202 kts | 146° |
| 2026-04-27 16:49 | 68.72516 | 32.85582 | 4492 ft | 222 kts | 145° |
| 2026-04-27 16:50 | 68.71198 | 32.88086 | 5351 ft | 241 kts | 139° |
| 2026-04-27 16:50 | 68.70003 | 32.91497 | 6189 ft | 261 kts | 127° |
| 2026-04-27 16:50 | 68.68782 | 32.95450 | 7325 ft | 281 kts | 126° |
| 2026-04-27 16:50 | 68.67514 | 32.99572 | 8564 ft | 296 kts | 126° |
| 2026-04-27 16:51 | 68.66178 | 33.03910 | 9803 ft | 306 kts | 126° |
| 2026-04-27 16:51 | 68.64796 | 33.08388 | 10958 ft | 318 kts | 126° |
| 2026-04-27 16:51 | 68.63341 | 33.13101 | 11982 ft | 334 kts | 126° |
| 2026-04-27 16:51 | 68.61830 | 33.17971 | 13054 ft | 347 kts | 127° |
| 2026-04-27 16:52 | 68.60236 | 33.23095 | 14123 ft | 361 kts | 127° |
| 2026-04-27 16:52 | 68.58591 | 33.28365 | 15154 ft | 373 kts | 127° |
| 2026-04-27 16:52 | 68.56890 | 33.33795 | 16161 ft | 386 kts | 127° |
| 2026-04-27 16:52 | 68.55121 | 33.39423 | 17117 ft | 399 kts | 127° |
| 2026-04-27 16:53 | 68.53307 | 33.45170 | 18049 ft | 411 kts | 127° |
| 2026-04-27 16:53 | 68.51345 | 33.50931 | 19097 ft | 420 kts | 131° |
| 2026-04-27 16:53 | 68.49299 | 33.56510 | 20145 ft | 423 kts | 131° |
| 2026-04-27 16:53 | 68.47224 | 33.62146 | 21059 ft | 426 kts | 131° |
| 2026-04-27 16:54 | 68.45126 | 33.67851 | 21927 ft | 430 kts | 132° |
| 2026-04-27 16:54 | 68.43005 | 33.73614 | 22821 ft | 433 kts | 132° |
| 2026-04-27 16:54 | 68.40889 | 33.79359 | 23644 ft | 436 kts | 132° |
| 2026-04-27 16:54 | 68.38751 | 33.85155 | 24344 ft | 441 kts | 133° |
| 2026-04-27 16:55 | 68.36571 | 33.91052 | 25024 ft | 445 kts | 133° |
| 2026-04-27 16:55 | 68.34367 | 33.96999 | 25705 ft | 449 kts | 134° |
| 2026-04-27 16:55 | 68.32150 | 34.02963 | 26337 ft | 453 kts | 134° |
| 2026-04-27 16:55 | 68.29902 | 34.08995 | 26930 ft | 458 kts | 134° |
| 2026-04-27 16:56 | 68.27632 | 34.15071 | 27523 ft | 463 kts | 134° |
| 2026-04-27 16:56 | 68.25356 | 34.21146 | 28135 ft | 466 kts | 134° |
| 2026-04-27 16:56 | 68.23069 | 34.27230 | 28967 ft | 461 kts | 134° |
| 2026-04-27 16:56 | 68.20834 | 34.33164 | 29773 ft | 456 kts | 134° |
| 2026-04-27 16:57 | 68.18596 | 34.39111 | 30538 ft | 454 kts | 134° |
| 2026-04-27 16:57 | 68.16370 | 34.45010 | 30934 ft | 454 kts | 134° |
| 2026-04-27 16:57 | 68.11833 | 34.56988 | 31026 ft | 472 kts | 135° |
| 2026-04-27 16:58 | 68.09488 | 34.63149 | 31025 ft | 486 kts | 135° |
| 2026-04-27 16:58 | 68.07018 | 34.69619 | 31021 ft | 500 kts | 137° |
| 2026-04-27 16:58 | 68.02031 | 34.82613 | 30994 ft | 508 kts | 137° |
| 2026-04-27 16:59 | 67.96960 | 34.95742 | 30999 ft | 516 kts | 137° |
| 2026-04-27 16:59 | 67.94392 | 35.02361 | 31219 ft | 519 kts | 137° |
| 2026-04-27 16:59 | 67.91811 | 35.08992 | 31685 ft | 516 kts | 138° |
| 2026-04-27 17:00 | 67.87548 | 35.19897 | 32580 ft | 510 kts | 138° |
| 2026-04-27 17:00 | 67.84165 | 35.28508 | 33207 ft | 507 kts | 138° |
| 2026-04-27 17:00 | 67.81623 | 35.34955 | 33603 ft | 508 kts | 138° |
| 2026-04-27 17:01 | 67.79077 | 35.41388 | 33951 ft | 509 kts | 138° |
| 2026-04-27 17:01 | 67.76547 | 35.47765 | 34291 ft | 510 kts | 137° |
| 2026-04-27 17:01 | 67.73998 | 35.54168 | 34653 ft | 510 kts | 137° |
| 2026-04-27 17:01 | 67.71439 | 35.60576 | 34888 ft | 512 kts | 137° |
| 2026-04-27 17:02 | 67.68862 | 35.67007 | 34920 ft | 512 kts | 139° |
| 2026-04-27 17:02 | 67.63673 | 35.79899 | 34930 ft | 511 kts | 139° |
| 2026-04-27 17:03 | 67.58549 | 35.92549 | 34932 ft | 511 kts | 139° |
| 2026-04-27 17:03 | 67.53398 | 36.05185 | 34939 ft | 511 kts | 139° |
| 2026-04-27 17:04 | 67.48283 | 36.17978 | 34939 ft | 512 kts | 133° |
| 2026-04-27 17:04 | 67.44032 | 36.32377 | 34941 ft | 514 kts | 128° |
| 2026-04-27 17:05 | 67.39994 | 36.46660 | 34935 ft | 513 kts | 128° |
| 2026-04-27 17:05 | 67.35745 | 36.61589 | 34930 ft | 513 kts | 128° |
| 2026-04-27 17:06 | 67.31517 | 36.76346 | 34925 ft | 512 kts | 129° |
| 2026-04-27 17:06 | 67.27251 | 36.91135 | 34920 ft | 512 kts | 129° |
| 2026-04-27 17:07 | 67.23023 | 37.05696 | 34915 ft | 512 kts | 129° |
| 2026-04-27 17:07 | 67.18745 | 37.20327 | 34906 ft | 511 kts | 129° |
| 2026-04-27 17:08 | 67.14483 | 37.34810 | 34895 ft | 511 kts | 129° |
| 2026-04-27 17:08 | 67.10185 | 37.49316 | 34878 ft | 511 kts | 129° |
| 2026-04-27 17:09 | 67.05899 | 37.63689 | 34866 ft | 510 kts | 129° |
| 2026-04-27 17:09 | 67.01599 | 37.78014 | 34857 ft | 510 kts | 130° |
| 2026-04-27 17:10 | 66.97279 | 37.92312 | 34852 ft | 510 kts | 130° |
| 2026-04-27 17:10 | 66.92963 | 38.06507 | 34852 ft | 509 kts | 130° |
| 2026-04-27 17:11 | 66.88615 | 38.20711 | 34852 ft | 509 kts | 130° |
| 2026-04-27 17:11 | 66.82112 | 38.41788 | 34833 ft | 507 kts | 130° |
| 2026-04-27 17:12 | 66.75562 | 38.62817 | 34822 ft | 507 kts | 131° |
| 2026-04-27 17:13 | 66.71185 | 38.76753 | 34812 ft | 507 kts | 131° |
| 2026-04-27 17:13 | 66.66818 | 38.90573 | 34808 ft | 507 kts | 132° |
| 2026-04-27 17:14 | 66.62433 | 39.04363 | 34804 ft | 507 kts | 132° |
| 2026-04-27 17:14 | 66.58021 | 39.18149 | 34801 ft | 506 kts | 132° |
| 2026-04-27 17:15 | 66.53629 | 39.31789 | 34796 ft | 506 kts | 132° |
| 2026-04-27 17:15 | 66.49206 | 39.45438 | 34795 ft | 505 kts | 132° |
| 2026-04-27 17:16 | 66.44781 | 39.59009 | 34795 ft | 504 kts | 132° |
| 2026-04-27 17:16 | 66.40344 | 39.72532 | 34791 ft | 503 kts | 133° |
| 2026-04-27 17:17 | 66.35915 | 39.85949 | 34793 ft | 502 kts | 133° |
| 2026-04-27 17:17 | 66.31490 | 39.99271 | 34798 ft | 502 kts | 133° |
| 2026-04-27 17:18 | 66.24843 | 40.19133 | 34802 ft | 500 kts | 134° |
| 2026-04-27 17:18 | 66.20367 | 40.32404 | 34787 ft | 500 kts | 134° |
| 2026-04-27 17:19 | 66.15923 | 40.45501 | 34773 ft | 499 kts | 134° |
| 2026-04-27 17:19 | 66.11449 | 40.58608 | 34757 ft | 500 kts | 134° |
| 2026-04-27 17:20 | 66.06956 | 40.71694 | 34751 ft | 500 kts | 135° |
| 2026-04-27 17:20 | 66.02485 | 40.84638 | 34752 ft | 500 kts | 135° |
| 2026-04-27 17:21 | 65.97972 | 40.97621 | 34754 ft | 500 kts | 135° |
| 2026-04-27 17:21 | 65.93452 | 41.10551 | 34802 ft | 498 kts | 135° |
| 2026-04-27 17:22 | 65.88962 | 41.23325 | 34804 ft | 495 kts | 135° |
| 2026-04-27 17:22 | 65.84509 | 41.35914 | 34774 ft | 494 kts | 135° |
| 2026-04-27 17:23 | 65.80029 | 41.48503 | 34770 ft | 495 kts | 135° |
| 2026-04-27 17:23 | 65.75508 | 41.61138 | 34759 ft | 494 kts | 135° |
| 2026-04-27 17:24 | 65.71018 | 41.73615 | 34755 ft | 494 kts | 136° |
| 2026-04-27 17:24 | 65.66494 | 41.86114 | 34746 ft | 494 kts | 136° |
| 2026-04-27 17:25 | 65.61955 | 41.98581 | 34742 ft | 494 kts | 136° |
| 2026-04-27 17:25 | 65.57403 | 42.11011 | 34738 ft | 494 kts | 136° |
| 2026-04-27 17:26 | 65.52859 | 42.23348 | 34734 ft | 494 kts | 136° |
| 2026-04-27 17:26 | 65.48305 | 42.35646 | 34743 ft | 494 kts | 136° |
| 2026-04-27 17:27 | 65.43752 | 42.47870 | 34742 ft | 494 kts | 136° |
| 2026-04-27 17:27 | 65.39196 | 42.60037 | 34739 ft | 493 kts | 136° |
| 2026-04-27 17:28 | 65.34964 | 42.73024 | 34733 ft | 500 kts | 125° |
| 2026-04-27 17:28 | 65.32361 | 42.88456 | 34735 ft | 510 kts | 111° |
| 2026-04-27 17:29 | 65.31332 | 42.96544 | 34731 ft | 509 kts | 112° |
| 2026-04-27 17:29 | 65.29209 | 43.12634 | 34731 ft | 508 kts | 112° |
| 2026-04-27 17:30 | 65.27014 | 43.28597 | 34740 ft | 508 kts | 113° |
| 2026-04-27 17:30 | 65.23629 | 43.52446 | 34741 ft | 507 kts | 113° |
| 2026-04-27 17:31 | 65.21342 | 43.68227 | 34740 ft | 507 kts | 114° |
| 2026-04-27 17:31 | 65.19028 | 43.83992 | 34736 ft | 507 kts | 114° |
| 2026-04-27 17:32 | 65.15501 | 44.07699 | 34743 ft | 508 kts | 114° |
| 2026-04-27 17:33 | 65.13127 | 44.23396 | 34742 ft | 508 kts | 115° |
| 2026-04-27 17:33 | 65.10713 | 44.39019 | 34735 ft | 508 kts | 115° |
| 2026-04-27 17:34 | 65.08272 | 44.54683 | 34733 ft | 508 kts | 115° |
| 2026-04-27 17:34 | 65.05816 | 44.70318 | 34733 ft | 507 kts | 115° |
| 2026-04-27 17:35 | 65.03337 | 44.85960 | 34733 ft | 507 kts | 115° |
| 2026-04-27 17:35 | 65.00854 | 45.01495 | 34730 ft | 507 kts | 115° |
| 2026-04-27 17:36 | 64.98340 | 45.17108 | 34726 ft | 507 kts | 115° |
| 2026-04-27 17:36 | 64.95838 | 45.32505 | 34723 ft | 507 kts | 115° |
| 2026-04-27 17:37 | 64.93301 | 45.47999 | 34727 ft | 508 kts | 115° |
| 2026-04-27 17:37 | 64.90751 | 45.63438 | 34729 ft | 508 kts | 115° |
| 2026-04-27 17:38 | 64.88269 | 45.78898 | 34735 ft | 510 kts | 111° |
| 2026-04-27 17:38 | 64.86302 | 45.94917 | 34738 ft | 511 kts | 110° |
| 2026-04-27 17:39 | 64.84313 | 46.10960 | 34738 ft | 511 kts | 111° |
| 2026-04-27 17:39 | 64.82302 | 46.26825 | 34736 ft | 511 kts | 111° |
| 2026-04-27 17:40 | 64.80260 | 46.42674 | 34731 ft | 511 kts | 111° |
| 2026-04-27 17:40 | 64.78185 | 46.58577 | 34723 ft | 512 kts | 111° |
| 2026-04-27 17:41 | 64.76092 | 46.74493 | 34719 ft | 512 kts | 112° |
| 2026-04-27 17:41 | 64.73981 | 46.90373 | 34721 ft | 512 kts | 112° |
| 2026-04-27 17:42 | 64.71860 | 47.06170 | 34722 ft | 512 kts | 111° |
| 2026-04-27 17:42 | 64.69622 | 47.21975 | 34720 ft | 512 kts | 113° |
| 2026-04-27 17:43 | 64.67336 | 47.37666 | 34701 ft | 512 kts | 112° |
| 2026-04-27 17:43 | 64.65030 | 47.53382 | 34682 ft | 513 kts | 112° |
| 2026-04-27 17:44 | 64.62742 | 47.68877 | 34680 ft | 495 kts | 114° |
| 2026-04-27 17:44 | 64.60532 | 47.83711 | 34682 ft | 486 kts | 114° |
| 2026-04-27 17:45 | 64.58300 | 47.98549 | 34683 ft | 486 kts | 114° |
| 2026-04-27 17:45 | 64.56063 | 48.13310 | 34683 ft | 486 kts | 114° |
| 2026-04-27 17:46 | 64.53816 | 48.28019 | 34683 ft | 487 kts | 114° |
| 2026-04-27 17:46 | 64.51529 | 48.42874 | 34681 ft | 487 kts | 114° |
| 2026-04-27 17:47 | 64.49254 | 48.57527 | 34679 ft | 487 kts | 114° |
| 2026-04-27 17:47 | 64.46939 | 48.72322 | 34672 ft | 487 kts | 114° |
| 2026-04-27 17:48 | 64.44621 | 48.86946 | 34671 ft | 487 kts | 115° |
| 2026-04-27 17:48 | 64.42231 | 49.01602 | 34670 ft | 488 kts | 115° |
| 2026-04-27 17:49 | 64.39833 | 49.16197 | 34666 ft | 489 kts | 115° |
| 2026-04-27 17:49 | 64.37429 | 49.30838 | 34662 ft | 490 kts | 114° |
| 2026-04-27 17:50 | 64.35064 | 49.45512 | 34659 ft | 489 kts | 114° |
| 2026-04-27 17:50 | 64.32711 | 49.60013 | 34627 ft | 478 kts | 114° |
| 2026-04-27 17:50 | 64.31552 | 49.67112 | 34346 ft | 473 kts | 115° |
| 2026-04-27 17:51 | 64.30379 | 49.74245 | 33544 ft | 481 kts | 115° |
| 2026-04-27 17:51 | 64.27779 | 49.89954 | 31544 ft | 496 kts | 115° |
| 2026-04-27 17:51 | 64.26538 | 49.97417 | 30684 ft | 499 kts | 115° |
| 2026-04-27 17:52 | 64.25302 | 50.04825 | 30069 ft | 496 kts | 115° |
| 2026-04-27 17:52 | 64.24087 | 50.12089 | 29576 ft | 490 kts | 114° |
| 2026-04-27 17:52 | 64.22851 | 50.19443 | 28992 ft | 484 kts | 114° |
| 2026-04-27 17:52 | 64.22052 | 50.24178 | 28626 ft | 480 kts | 115° |
| 2026-04-27 17:53 | 64.20457 | 50.33601 | 27907 ft | 472 kts | 115° |
| 2026-04-27 17:53 | 64.19275 | 50.40550 | 27389 ft | 465 kts | 115° |
| 2026-04-27 17:53 | 64.18111 | 50.47366 | 26909 ft | 459 kts | 115° |
| 2026-04-27 17:53 | 64.16957 | 50.54104 | 26406 ft | 453 kts | 115° |
| 2026-04-27 17:54 | 64.15813 | 50.60762 | 25890 ft | 448 kts | 115° |
| 2026-04-27 17:54 | 64.14677 | 50.67338 | 25354 ft | 444 kts | 116° |
| 2026-04-27 17:54 | 64.13560 | 50.73791 | 24827 ft | 439 kts | 116° |
| 2026-04-27 17:54 | 64.12442 | 50.80226 | 24299 ft | 434 kts | 116° |
| 2026-04-27 17:55 | 64.11332 | 50.86596 | 23769 ft | 429 kts | 116° |
| 2026-04-27 17:55 | 64.10236 | 50.92861 | 23249 ft | 424 kts | 116° |
| 2026-04-27 17:55 | 64.09155 | 50.99019 | 22734 ft | 420 kts | 116° |
| 2026-04-27 17:55 | 64.08067 | 51.05200 | 22210 ft | 416 kts | 116° |
| 2026-04-27 17:56 | 64.06998 | 51.11248 | 21696 ft | 412 kts | 116° |
| 2026-04-27 17:56 | 64.05933 | 51.17264 | 21175 ft | 408 kts | 116° |
| 2026-04-27 17:56 | 64.04873 | 51.23231 | 20654 ft | 405 kts | 116° |
| 2026-04-27 17:56 | 64.03822 | 51.29127 | 20141 ft | 401 kts | 116° |
| 2026-04-27 17:57 | 64.02783 | 51.34934 | 19627 ft | 398 kts | 116° |
| 2026-04-27 17:57 | 64.01744 | 51.40733 | 19112 ft | 395 kts | 116° |
| 2026-04-27 17:57 | 64.00710 | 51.46483 | 18601 ft | 392 kts | 116° |
| 2026-04-27 17:57 | 63.99680 | 51.52193 | 18086 ft | 389 kts | 116° |
| 2026-04-27 17:58 | 63.98666 | 51.57798 | 17579 ft | 386 kts | 116° |
| 2026-04-27 17:58 | 63.97649 | 51.63390 | 17071 ft | 383 kts | 116° |
| 2026-04-27 17:58 | 63.96629 | 51.68987 | 16558 ft | 380 kts | 117° |
| 2026-04-27 17:58 | 63.95626 | 51.74480 | 16052 ft | 378 kts | 117° |
| 2026-04-27 17:59 | 63.94628 | 51.79943 | 15550 ft | 375 kts | 117° |
| 2026-04-27 17:59 | 63.93628 | 51.85374 | 15047 ft | 373 kts | 117° |
| 2026-04-27 17:59 | 63.92645 | 51.90763 | 14546 ft | 371 kts | 117° |
| 2026-04-27 17:59 | 63.91650 | 51.96165 | 14039 ft | 368 kts | 117° |
| 2026-04-27 18:00 | 63.90673 | 52.01445 | 13541 ft | 366 kts | 118° |
| 2026-04-27 18:00 | 63.89690 | 52.06742 | 13038 ft | 363 kts | 118° |
| 2026-04-27 18:00 | 63.88713 | 52.12000 | 12548 ft | 360 kts | 118° |
| 2026-04-27 18:00 | 63.87746 | 52.17185 | 12058 ft | 357 kts | 118° |
| 2026-04-27 18:01 | 63.86791 | 52.22304 | 11568 ft | 354 kts | 118° |
| 2026-04-27 18:01 | 63.85833 | 52.27422 | 11080 ft | 351 kts | 118° |
| 2026-04-27 18:01 | 63.85004 | 52.32532 | 10600 ft | 352 kts | 108° |
| 2026-04-27 18:01 | 63.84609 | 52.37971 | 10396 ft | 343 kts | 103° |
| 2026-04-27 18:02 | 63.84318 | 52.43132 | 10260 ft | 319 kts | 103° |
| 2026-04-27 18:02 | 63.84049 | 52.47903 | 10272 ft | 296 kts | 103° |
| 2026-04-27 18:02 | 63.83781 | 52.52410 | 10141 ft | 285 kts | 103° |
| 2026-04-27 18:02 | 63.83516 | 52.56787 | 10001 ft | 276 kts | 104° |
| 2026-04-27 18:03 | 63.83256 | 52.61048 | 9877 ft | 266 kts | 104° |
| 2026-04-27 18:03 | 63.83002 | 52.65154 | 9789 ft | 274 kts | 104° |
| 2026-04-27 18:03 | 63.82734 | 52.69450 | 9463 ft | 280 kts | 104° |
| 2026-04-27 18:03 | 63.82465 | 52.73835 | 9073 ft | 281 kts | 104° |
| 2026-04-27 18:04 | 63.82198 | 52.78169 | 8724 ft | 280 kts | 104° |
| 2026-04-27 18:04 | 63.81926 | 52.82539 | 8386 ft | 280 kts | 104° |
| 2026-04-27 18:04 | 63.81654 | 52.86888 | 8052 ft | 279 kts | 104° |
| 2026-04-27 18:04 | 63.81384 | 52.91178 | 7724 ft | 278 kts | 104° |
| 2026-04-27 18:05 | 63.81110 | 52.95526 | 7392 ft | 277 kts | 104° |
| 2026-04-27 18:05 | 63.80838 | 52.99807 | 7070 ft | 276 kts | 104° |
| 2026-04-27 18:05 | 63.80559 | 53.04087 | 6765 ft | 275 kts | 105° |
| 2026-04-27 18:05 | 63.80290 | 53.08374 | 6419 ft | 274 kts | 105° |
| 2026-04-27 18:06 | 63.80021 | 53.12599 | 6092 ft | 274 kts | 105° |
| 2026-04-27 18:06 | 63.79742 | 53.16869 | 5768 ft | 273 kts | 105° |
| 2026-04-27 18:06 | 63.79466 | 53.21055 | 5499 ft | 269 kts | 105° |
| 2026-04-27 18:06 | 63.79194 | 53.25161 | 5397 ft | 262 kts | 105° |
| 2026-04-27 18:07 | 63.78925 | 53.29195 | 5287 ft | 260 kts | 105° |
| 2026-04-27 18:07 | 63.78650 | 53.33236 | 5155 ft | 259 kts | 105° |
| 2026-04-27 18:07 | 63.78383 | 53.37262 | 5018 ft | 259 kts | 105° |
| 2026-04-27 18:07 | 63.78122 | 53.41254 | 4980 ft | 259 kts | 106° |
| 2026-04-27 18:08 | 63.77855 | 53.45280 | 4978 ft | 259 kts | 105° |
| 2026-04-27 18:08 | 63.77577 | 53.49356 | 4908 ft | 260 kts | 105° |
| 2026-04-27 18:08 | 63.77306 | 53.53339 | 4784 ft | 260 kts | 105° |
| 2026-04-27 18:08 | 63.77029 | 53.57413 | 4644 ft | 259 kts | 105° |
| 2026-04-27 18:09 | 63.76759 | 53.61377 | 4508 ft | 258 kts | 105° |
| 2026-04-27 18:09 | 63.76483 | 53.65420 | 4373 ft | 258 kts | 106° |
| 2026-04-27 18:09 | 63.76189 | 53.69374 | 4230 ft | 252 kts | 110° |
| 2026-04-27 18:09 | 63.75763 | 53.73134 | 4095 ft | 244 kts | 111° |
| 2026-04-27 18:10 | 63.75325 | 53.76769 | 3969 ft | 236 kts | 111° |
| 2026-04-27 18:10 | 63.74894 | 53.80277 | 3840 ft | 228 kts | 110° |
| 2026-04-27 18:10 | 63.74481 | 53.83656 | 3723 ft | 220 kts | 110° |
| 2026-04-27 18:10 | 63.73959 | 53.86739 | 3600 ft | 207 kts | 130° |
| 2026-04-27 18:11 | 63.72899 | 53.88726 | 3495 ft | 192 kts | 155° |
| 2026-04-27 18:11 | 63.72094 | 53.89477 | 3396 ft | 189 kts | 163° |
| 2026-04-27 18:11 | 63.70799 | 53.89383 | 3145 ft | 190 kts | 191° |
| 2026-04-27 18:12 | 63.70374 | 53.89086 | 3071 ft | 188 kts | 193° |
| 2026-04-27 18:12 | 63.67113 | 53.86928 | 2433 ft | 141 kts | 189° |
| 2026-04-27 18:12 | 63.66203 | 53.86364 | 2258 ft | 132 kts | 189° |
| 2026-04-27 18:12 | 63.65336 | 53.85825 | 2090 ft | 128 kts | 189° |
| 2026-04-27 18:13 | 63.64468 | 53.85282 | 1913 ft | 127 kts | 189° |
| 2026-04-27 18:13 | 63.63625 | 53.84759 | 1740 ft | 127 kts | 189° |
| 2026-04-27 18:13 | 63.62759 | 53.84221 | 1562 ft | 130 kts | 189° |
| 2026-04-27 18:13 | 63.61881 | 53.83674 | 1376 ft | 132 kts | 191° |
| 2026-04-27 18:14 | 63.60987 | 53.83119 | 1196 ft | 135 kts | 191° |
| 2026-04-27 18:14 | 63.60068 | 53.82548 | 1015 ft | 138 kts | 192° |
| 2026-04-27 18:14 | 63.59143 | 53.81973 | 798 ft | 137 kts | 192° |
| 2026-04-27 18:14 | 63.58223 | 53.81402 | 615 ft | 137 kts | 192° |
| 2026-04-27 18:15 | 63.57327 | 53.80860 | 498 ft | 124 kts | 195° |
| 2026-04-27 18:15 | 63.56609 | 53.80428 | 498 ft | 87 kts | 197° |
| 2026-04-27 18:15 | 63.56168 | 53.80151 | 498 ft | 49 kts | 197° |
| 2026-04-27 18:15 | 63.55868 | 53.79968 | 498 ft | 28 kts | 195° |
| 2026-04-27 18:16 | 63.55722 | 53.80042 | 498 ft | 19 kts | 124° |
| 2026-04-27 18:16 | 63.55696 | 53.80175 | 498 ft | 6 kts | 111° |
| 2026-04-27 18:16 | 63.55678 | 53.80282 | 498 ft | 6 kts | 105° |
| 2026-04-27 18:16 | 63.55682 | 53.80377 | 498 ft | 5 kts | 75° |
| 2026-04-27 18:17 | 63.55684 | 53.80474 | 498 ft | 8 kts | 112° |
| 2026-04-27 18:17 | 63.55635 | 53.80508 | 498 ft | 9 kts | 242° |
| 2026-04-27 18:17 | 63.55628 | 53.80452 | 498 ft | 0 kts | 257° |
| 2026-04-27 18:17 | 63.55628 | 53.80446 | 498 ft | 0 kts | 257° |